createdAt,value
2023-02-28T00:03:46.125Z,16.92
2023-02-28T00:08:09.251Z,16.75
2023-02-28T00:12:31.396Z,15.88
2023-02-28T00:16:53.336Z,17.35
2023-02-28T00:21:16.774Z,15.18
2023-02-28T00:25:38.813Z,14.07
2023-02-28T00:30:01.126Z,15.70
2023-02-28T00:34:23.747Z,15.13
2023-02-28T00:38:45.548Z,14.25
2023-02-28T00:43:07.704Z,12.45
2023-02-28T00:47:29.515Z,16.40
2023-02-28T00:51:52.467Z,12.93
2023-02-28T00:56:15.026Z,14.57
2023-02-28T01:00:37.244Z,14.10
2023-02-28T01:04:59.189Z,14.23
2023-02-28T01:09:21.281Z,16.00
2023-02-28T01:13:44.327Z,13.63
2023-02-28T01:18:08.078Z,13.30
2023-02-28T01:22:30.489Z,15.70
2023-02-28T01:26:52.531Z,16.67
2023-02-28T01:31:17.033Z,17.65
2023-02-28T01:35:39.318Z,14.40
2023-02-28T01:40:01.316Z,15.35
2023-02-28T01:45:07.532Z,19.60
2023-02-28T01:49:29.831Z,15.23
2023-02-28T01:54:02.185Z,15.27
2023-02-28T01:58:25.263Z,16.23
2023-02-28T02:02:52.809Z,16.95
2023-02-28T02:07:16.083Z,18.73
2023-02-28T02:11:44.461Z,13.25
2023-02-28T02:16:39.482Z,15.23
2023-02-28T02:21:51.381Z,15.50
2023-02-28T02:27:00.301Z,17.30
2023-02-28T02:31:46.555Z,16.27
2023-02-28T02:36:34.363Z,16.63
2023-02-28T02:41:16.027Z,17.05
2023-02-28T02:45:54.380Z,17.83
2023-02-28T02:50:26.976Z,17.27
2023-02-28T02:54:56.187Z,21.60
2023-02-28T02:59:25.021Z,17.02
2023-02-28T03:03:47.573Z,19.45
2023-02-28T03:08:09.602Z,20.55
2023-02-28T03:12:50.354Z,22.10
2023-02-28T03:17:37.923Z,18.02
2023-02-28T03:22:56.244Z,20.02
2023-02-28T03:28:05.648Z,17.83
2023-02-28T03:32:36.302Z,17.90
2023-02-28T03:37:10.301Z,19.20
2023-02-28T03:42:12.435Z,19.38
2023-02-28T03:46:43.349Z,17.75
2023-02-28T03:51:10.175Z,20.95
2023-02-28T03:55:45.853Z,20.95
2023-02-28T04:00:14.947Z,20.88
2023-02-28T04:04:37.563Z,19.67
2023-02-28T04:09:01.061Z,22.20
2023-02-28T04:13:23.311Z,21.60
2023-02-28T04:17:45.108Z,40.72
2023-02-28T04:22:07.537Z,19.92
2023-02-28T04:26:39.086Z,19.92
2023-02-28T04:31:05.050Z,34.05
2023-02-28T04:35:27.040Z,24.38
2023-02-28T04:39:49.268Z,21.42
2023-02-28T04:44:11.608Z,23.20
2023-02-28T04:48:37.070Z,25.83
2023-02-28T04:52:59.214Z,23.70
2023-02-28T04:57:21.282Z,23.73
2023-02-28T05:01:48.527Z,26.83
2023-02-28T05:06:12.641Z,29.42
2023-02-28T05:10:35.253Z,28.95
2023-02-28T05:14:57.523Z,29.17
2023-02-28T05:19:20.240Z,26.85
2023-02-28T05:23:42.479Z,29.35
2023-02-28T05:28:05.042Z,27.55
2023-02-28T05:32:27.156Z,30.23
2023-02-28T05:36:49.240Z,32.67
2023-02-28T05:41:12.421Z,31.15
2023-02-28T05:45:34.684Z,30.08
2023-02-28T05:49:57.059Z,31.90
2023-02-28T05:54:19.401Z,28.30
2023-02-28T05:58:41.182Z,29.35
2023-02-28T06:03:03.656Z,28.45
2023-02-28T06:07:27.324Z,28.90
2023-02-28T06:11:49.391Z,27.48
2023-02-28T06:16:13.477Z,34.17
2023-02-28T06:20:35.685Z,34.60
2023-02-28T06:24:58.084Z,31.55
2023-02-28T06:29:20.347Z,42.78
2023-02-28T06:33:43.826Z,41.25
2023-02-28T06:38:05.953Z,25.13
2023-02-28T06:42:29.874Z,18.13
2023-02-28T06:46:52.068Z,19.20
2023-02-28T06:51:23.612Z,17.52
2023-02-28T06:55:45.731Z,18.60
2023-02-28T07:00:10.577Z,17.27
2023-02-28T07:04:32.925Z,17.10
2023-02-28T07:08:55.706Z,16.23
2023-02-28T07:13:17.902Z,17.58
2023-02-28T07:17:39.907Z,19.27
2023-02-28T07:22:03.867Z,16.73
2023-02-28T07:26:25.902Z,16.80
2023-02-28T07:30:49.257Z,18.13
2023-02-28T07:35:11.363Z,17.02
2023-02-28T07:39:33.152Z,18.65
2023-02-28T07:43:56.914Z,19.25
2023-02-28T07:48:18.988Z,17.50
2023-02-28T07:52:41.889Z,17.38
2023-02-28T07:57:04.210Z,17.52
2023-02-28T08:01:26.315Z,16.08
2023-02-28T08:05:49.200Z,18.98
2023-02-28T08:10:11.665Z,16.25
2023-02-28T08:14:34.265Z,16.42
2023-02-28T08:18:56.554Z,19.80
2023-02-28T08:23:18.448Z,15.45
2023-02-28T08:27:40.448Z,17.23
2023-02-28T08:32:02.281Z,31.83
2023-02-28T08:36:26.111Z,17.65
2023-02-28T08:40:48.058Z,16.95
2023-02-28T08:45:10.630Z,16.40
2023-02-28T08:49:32.945Z,15.68
2023-02-28T08:54:04.483Z,16.70
2023-02-28T08:58:26.831Z,13.88
2023-02-28T09:02:49.447Z,13.18
2023-02-28T09:07:11.460Z,13.80
2023-02-28T09:11:34.141Z,15.38
2023-02-28T09:16:00.602Z,15.40
2023-02-28T09:20:22.442Z,15.32
2023-02-28T09:24:45.709Z,13.23
2023-02-28T09:29:07.869Z,15.40
2023-02-28T09:33:29.931Z,14.88
2023-02-28T09:37:53.173Z,14.60
2023-02-28T09:42:26.426Z,14.45
2023-02-28T09:46:54.683Z,14.07
2023-02-28T09:51:34.698Z,13.68
2023-02-28T09:56:00.854Z,16.25
2023-02-28T10:00:34.733Z,12.48
2023-02-28T10:05:01.189Z,14.68
2023-02-28T10:09:30.450Z,13.65
2023-02-28T10:14:02.707Z,13.48
2023-02-28T10:18:41.324Z,14.82
2023-02-28T10:23:38.626Z,13.13
2023-02-28T10:28:16.098Z,17.95
2023-02-28T10:32:40.986Z,15.35
2023-02-28T10:37:08.600Z,15.02
2023-02-28T10:41:37.463Z,13.73
2023-02-28T10:46:11.699Z,13.80
2023-02-28T10:50:54.607Z,17.23
2023-02-28T10:55:26.991Z,15.15
2023-02-28T10:59:56.115Z,15.07
2023-02-28T11:04:40.664Z,15.32
2023-02-28T11:09:25.443Z,14.60
2023-02-28T11:13:48.845Z,12.15
2023-02-28T11:18:13.718Z,18.55
2023-02-28T11:22:44.399Z,15.70
2023-02-28T11:27:06.259Z,15.13
2023-02-28T11:31:31.077Z,16.85
2023-02-28T11:35:59.294Z,14.93
2023-02-28T11:40:54.237Z,16.52
2023-02-28T11:46:04.969Z,13.57
2023-02-28T11:51:12.742Z,16.33
2023-02-28T11:55:54.931Z,14.43
2023-02-28T12:01:03.568Z,14.27
2023-02-28T12:06:11.067Z,14.73
2023-02-28T12:11:17.657Z,15.38
2023-02-28T12:15:45.269Z,14.98
2023-02-28T12:20:30.859Z,15.60
2023-02-28T12:25:07.724Z,13.70
2023-02-28T12:29:44.451Z,14.63
2023-02-28T12:34:19.027Z,24.92
2023-02-28T12:38:56.906Z,15.23
2023-02-28T12:43:22.027Z,14.85
2023-02-28T12:47:47.727Z,17.20
2023-02-28T12:52:12.291Z,17.13
2023-02-28T12:57:01.328Z,15.80
2023-02-28T13:01:46.465Z,18.77
2023-02-28T13:06:53.957Z,20.00
2023-02-28T13:11:41.152Z,17.42
2023-02-28T13:16:09.160Z,20.70
2023-02-28T13:20:37.431Z,17.73
2023-02-28T13:24:59.742Z,21.13
2023-02-28T13:29:45.602Z,20.15
2023-02-28T13:34:16.289Z,20.58
2023-02-28T13:39:01.682Z,17.77
2023-02-28T13:44:10.112Z,20.92
2023-02-28T13:48:32.412Z,19.88
2023-02-28T13:53:15.497Z,22.27
2023-02-28T13:58:18.231Z,20.52
2023-02-28T14:03:14.266Z,20.27
2023-02-28T14:07:49.830Z,21.02
2023-02-28T14:12:59.887Z,22.48
2023-02-28T14:17:21.767Z,21.63
2023-02-28T14:22:20.586Z,21.55
2023-02-28T14:28:09.205Z,23.33
2023-02-28T14:33:06.724Z,22.00
2023-02-28T14:37:34.263Z,19.45
2023-02-28T14:41:56.927Z,21.17
2023-02-28T14:46:20.785Z,23.15
2023-02-28T14:50:52.668Z,18.73
2023-02-28T14:55:20.226Z,24.08
2023-02-28T14:59:42.646Z,19.65
2023-02-28T15:04:07.465Z,20.35
2023-02-28T15:08:32.894Z,19.00
2023-02-28T15:12:59.279Z,20.13
2023-02-28T15:17:25.873Z,21.90
2023-02-28T15:21:54.242Z,20.48
2023-02-28T15:26:24.386Z,21.92
2023-02-28T15:31:02.440Z,20.75
2023-02-28T15:35:25.921Z,21.98
2023-02-28T15:39:48.749Z,20.98
2023-02-28T15:44:27.899Z,29.08
2023-02-28T15:48:55.564Z,24.58
2023-02-28T15:53:29.720Z,25.08
2023-02-28T15:57:59.818Z,29.58
2023-02-28T16:02:32.332Z,22.67
2023-02-28T16:07:00.769Z,23.83
2023-02-28T16:11:23.681Z,24.73
2023-02-28T16:15:45.904Z,25.42
2023-02-28T16:20:16.666Z,25.10
2023-02-28T16:24:39.783Z,26.33
2023-02-28T16:29:03.533Z,24.98
2023-02-28T16:33:25.812Z,23.73
2023-02-28T16:37:48.385Z,27.52
2023-02-28T16:42:29.863Z,25.35
2023-02-28T16:46:51.920Z,25.85
2023-02-28T16:51:16.793Z,30.52
2023-02-28T16:55:39.218Z,29.90
2023-02-28T17:00:01.210Z,33.05
2023-02-28T17:04:23.565Z,26.50
2023-02-28T17:08:45.629Z,30.15
2023-02-28T17:13:14.905Z,29.40
2023-02-28T17:17:37.384Z,27.85
2023-02-28T17:21:59.518Z,24.95
2023-02-28T17:26:25.823Z,31.23
2023-02-28T17:30:48.877Z,31.05
2023-02-28T17:35:11.968Z,30.08
2023-02-28T17:39:34.331Z,28.50
2023-02-28T17:43:57.505Z,30.30
2023-02-28T17:48:19.454Z,29.80
2023-02-28T17:52:42.753Z,29.92
2023-02-28T17:57:05.147Z,31.75
2023-02-28T18:01:27.597Z,36.45
2023-02-28T18:05:50.355Z,34.17
2023-02-28T18:10:20.609Z,35.10
2023-02-28T18:14:43.594Z,29.63
2023-02-28T18:19:07.156Z,32.47
2023-02-28T18:23:29.587Z,32.13
2023-02-28T18:27:58.436Z,31.55
2023-02-28T18:32:20.323Z,32.15
2023-02-28T18:36:42.891Z,33.72
2023-02-28T18:41:07.571Z,35.20
2023-02-28T18:45:29.922Z,32.38
2023-02-28T18:49:51.641Z,33.58
2023-02-28T18:54:15.585Z,35.42
2023-02-28T18:58:37.761Z,28.35
2023-02-28T19:02:59.861Z,32.15
2023-02-28T19:07:22.063Z,31.25
2023-02-28T19:11:44.004Z,30.52
2023-02-28T19:16:08.463Z,33.38
2023-02-28T19:20:30.692Z,38.13
2023-02-28T19:25:31.044Z,33.20
2023-02-28T19:31:01.949Z,32.00
2023-02-28T19:35:36.684Z,33.30
2023-02-28T19:46:19.560Z,32.95
2023-02-28T19:51:36.837Z,34.85
2023-02-28T20:02:03.030Z,32.13
2023-02-28T20:12:47.445Z,33.90
2023-02-28T20:23:20.287Z,40.00
2023-02-28T20:28:40.852Z,37.70
2023-02-28T20:33:28.985Z,40.40
2023-02-28T20:37:52.145Z,46.90
2023-02-28T20:42:15.544Z,44.83
2023-02-28T20:46:37.838Z,40.25
2023-02-28T20:51:00.364Z,47.33
2023-02-28T20:55:22.116Z,44.65
2023-02-28T20:59:44.414Z,45.60
2023-02-28T21:04:08.201Z,40.65
2023-02-28T21:08:30.447Z,41.17
2023-02-28T21:12:57.853Z,42.92
2023-02-28T21:17:20.133Z,44.50
2023-02-28T21:21:48.742Z,38.84
2023-02-28T21:26:14.827Z,43.28
2023-02-28T21:30:37.864Z,47.80
2023-02-28T21:35:00.033Z,43.33
2023-02-28T21:39:29.036Z,47.53
2023-02-28T21:43:52.158Z,54.90
2023-02-28T21:48:14.073Z,51.20
2023-02-28T21:52:36.856Z,49.08
2023-02-28T21:56:59.987Z,51.58
2023-02-28T22:01:22.885Z,50.10
2023-02-28T22:05:44.709Z,47.35
2023-02-28T22:10:07.087Z,49.92
2023-02-28T22:14:28.929Z,54.22
2023-02-28T22:18:51.448Z,47.53
2023-02-28T22:23:13.545Z,46.03
2023-02-28T22:27:35.911Z,48.42
2023-02-28T22:31:57.742Z,59.28
2023-02-28T22:36:21.627Z,51.70
2023-02-28T22:40:43.646Z,45.47
2023-02-28T22:45:05.926Z,46.90
2023-02-28T22:49:28.461Z,49.58
2023-02-28T22:53:52.129Z,46.90
2023-02-28T22:58:13.965Z,51.15
2023-02-28T23:02:37.041Z,50.67
2023-02-28T23:06:59.362Z,42.83
2023-02-28T23:11:30.124Z,49.35
2023-02-28T23:15:51.963Z,48.72
2023-02-28T23:20:17.706Z,49.65
2023-02-28T23:24:39.740Z,49.38
2023-02-28T23:29:01.879Z,48.33
2023-02-28T23:33:23.660Z,50.08
2023-02-28T23:37:45.940Z,48.45
2023-02-28T23:42:08.161Z,50.92
2023-02-28T23:46:30.515Z,52.53
2023-02-28T23:50:52.639Z,50.83
2023-02-28T23:55:14.999Z,57.70
2023-02-28T23:59:37.203Z,54.33
